Time;durP1;ratioP1;P1;durP2;ratioP2;P2;SDS_P1;SDS_P2;PMS_P1;PMS_P2;Temp;Humidity;BMP_temperature;BMP_pressure;BME280_temperature;BME280_humidity;BME280_pressure;Samples;Min_cycle;Max_cycle;Signal;HPM_P1;HPM_P2
2022/12/24 00:00:20;;;;;;;;;7.33;7.33;;;;;14.25;68.09;100713.69;2113572;27;46998;-62
2022/12/24 00:01:21;;;;;;;;;9.67;7.33;;;;;14.26;68.31;100714.56;2113463;27;46523;-62
2022/12/24 00:02:21;;;;;;;;;6.00;5.33;;;;;14.25;68.66;100716.34;2113323;27;46265;-62
2022/12/24 00:03:22;;;;;;;;;11.33;7.33;;;;;14.27;68.36;100718.97;2113172;27;47088;-63
2022/12/24 00:04:22;;;;;;;;;7.67;5.00;;;;;14.27;68.29;100726.97;2104973;28;46625;-62
2022/12/24 00:05:22;;;;;;;;;5.67;5.33;;;;;14.26;68.47;100725.22;2105023;27;45348;-63
2022/12/24 00:06:23;;;;;;;;;7.33;6.00;;;;;14.27;68.22;100721.63;2113402;27;46322;-63
2022/12/24 00:07:23;;;;;;;;;5.33;4.00;;;;;14.28;68.27;100724.25;2113399;27;46262;-62
2022/12/24 00:08:24;;;;;;;;;6.67;5.33;;;;;14.28;68.05;100720.69;2113268;27;46644;-62
2022/12/24 00:09:24;;;;;;;;;8.67;6.67;;;;;14.28;68.36;100718.91;2113687;27;46433;-63
2022/12/24 00:10:24;;;;;;;;;8.00;5.33;;;;;14.28;68.32;100713.56;2113637;27;46027;-61
2022/12/24 00:11:25;;;;;;;;;6.00;3.67;;;;;14.28;68.51;100718.03;2113489;27;46390;-62
2022/12/24 00:12:25;;;;;;;;;7.33;5.67;;;;;14.28;68.39;100718.03;2113175;27;46218;-63
2022/12/24 00:13:26;;;;;;;;;7.67;4.00;;;;;14.27;68.23;100717.16;2105919;28;45237;-62
2022/12/24 00:14:26;;;;;;;;;6.00;3.67;;;;;14.27;68.45;100711.81;2106206;28;46939;-63
2022/12/24 00:15:26;;;;;;;;;6.67;6.67;;;;;14.27;68.57;100711.81;2105891;27;47312;-62
2022/12/24 00:16:27;;;;;;;;;9.00;8.00;;;;;14.28;68.32;100715.38;2105530;27;46797;-62
2022/12/24 00:17:27;;;;;;;;;8.67;6.33;;;;;14.28;68.47;100712.69;2105819;27;45922;-61
2022/12/24 00:18:28;;;;;;;;;8.00;8.00;;;;;14.28;68.04;100718.03;2105834;27;46288;-63
2022/12/24 00:19:28;;;;;;;;;6.00;4.67;;;;;14.27;68.06;100713.63;2114067;27;46527;-63
2022/12/24 00:20:28;;;;;;;;;8.33;7.33;;;;;14.27;68.42;100709.16;2113730;27;46167;-63
2022/12/24 00:21:29;;;;;;;;;5.00;5.00;;;;;14.26;68.43;100704.75;2106061;27;46934;-62
2022/12/24 00:22:29;;;;;;;;;6.67;5.67;;;;;14.25;68.10;100704.81;2105290;27;46536;-63
2022/12/24 00:23:29;;;;;;;;;7.00;4.67;;;;;14.23;68.39;100704.88;2106097;27;46430;-63
2022/12/24 00:24:30;;;;;;;;;8.00;5.00;;;;;14.22;67.93;100716.44;2104992;28;46315;-62
2022/12/24 00:25:30;;;;;;;;;6.33;6.33;;;;;14.21;68.43;100722.72;2107224;27;46379;-62
2022/12/24 00:26:32;;;;;;;;;8.33;6.33;;;;;14.22;68.01;100715.56;2122533;27;46618;-63
2022/12/24 00:27:32;;;;;;;;;9.25;6.50;;;;;14.20;68.38;100714.75;2115230;27;46332;-63
2022/12/24 00:28:33;;;;;;;;;10.33;6.67;;;;;14.20;68.40;100720.09;2105691;27;47029;-63
2022/12/24 00:29:33;;;;;;;;;9.67;6.33;;;;;14.18;68.43;100711.28;2110962;27;46216;-63
2022/12/24 00:30:36;;;;;;;;;6.67;4.67;;;;;14.18;68.41;100716.63;2109417;27;46723;-63
2022/12/24 00:31:36;;;;;;;;;8.00;6.75;;;;;14.17;68.27;100713.09;2113444;27;46870;-62
2022/12/24 00:32:37;;;;;;;;;8.33;7.67;;;;;14.17;68.45;100707.75;2113719;27;46995;-63
2022/12/24 00:33:38;;;;;;;;;6.33;5.67;;;;;14.17;68.29;100714.88;2106025;27;47127;-63
2022/12/24 00:34:39;;;;;;;;;8.67;8.67;;;;;14.17;68.27;100720.22;2104920;28;46318;-64
2022/12/24 00:35:39;;;;;;;;;5.75;5.00;;;;;14.17;68.29;100717.56;2105199;28;46542;-63
2022/12/24 00:36:40;;;;;;;;;4.00;4.00;;;;;14.16;68.10;100721.16;2099273;28;46206;-61
2022/12/24 00:37:40;;;;;;;;;6.00;4.67;;;;;14.14;68.21;100716.75;2105280;28;45962;-63
2022/12/24 00:38:41;;;;;;;;;6.67;5.33;;;;;14.12;68.71;100713.25;2104825;28;46548;-61
2022/12/24 00:39:41;;;;;;;;;6.67;6.67;;;;;14.11;68.41;100719.53;2106175;27;46788;-61
2022/12/24 00:40:41;;;;;;;;;6.33;5.00;;;;;14.12;68.23;100715.06;2105831;27;46570;-63
2022/12/24 00:41:42;;;;;;;;;6.67;6.00;;;;;14.10;68.07;100720.47;2109439;27;46736;-62
2022/12/24 00:42:42;;;;;;;;;7.33;5.00;;;;;14.11;68.34;100718.66;2107694;27;47051;-62
2022/12/24 00:43:43;;;;;;;;;7.00;6.00;;;;;14.11;68.50;100724.88;2106592;27;46692;-63
2022/12/24 00:44:43;;;;;;;;;8.00;6.00;;;;;14.11;68.26;100738.22;2107676;27;46854;-62
2022/12/24 00:45:43;;;;;;;;;7.00;4.67;;;;;14.11;68.30;100735.53;2110558;27;46866;-62
2022/12/24 00:46:44;;;;;;;;;8.33;6.00;;;;;14.11;68.05;100737.34;2105692;27;46264;-62
2022/12/24 00:47:44;;;;;;;;;5.67;5.67;;;;;14.07;68.13;100741.03;2105451;27;46541;-62
2022/12/24 00:48:44;;;;;;;;;6.00;4.00;;;;;14.06;68.30;100736.59;2112108;27;46644;-63
2022/12/24 00:49:45;;;;;;;;;7.33;7.00;;;;;14.06;68.38;100747.28;2106276;27;46668;-63
2022/12/24 00:50:45;;;;;;;;;6.00;5.67;;;;;14.05;68.34;100740.22;2108867;27;46464;-62
2022/12/24 00:51:45;;;;;;;;;5.67;5.00;;;;;14.03;68.27;100739.41;2106616;27;46159;-63
2022/12/24 00:52:46;;;;;;;;;5.67;3.33;;;;;14.03;68.62;100747.41;2106600;27;46199;-63
2022/12/24 00:53:46;;;;;;;;;5.33;4.67;;;;;14.02;68.62;100748.34;2110489;27;46159;-61
2022/12/24 00:54:47;;;;;;;;;4.67;3.67;;;;;14.01;68.43;100742.13;2105576;27;46795;-61
2022/12/24 00:55:47;;;;;;;;;7.33;5.67;;;;;14.02;68.76;100743.00;2106704;27;45753;-63
2022/12/24 00:56:47;;;;;;;;;9.00;6.33;;;;;14.02;68.79;100735.84;2105825;27;46076;-61
2022/12/24 00:57:48;;;;;;;;;5.33;5.33;;;;;14.02;68.72;100733.19;2105823;27;47087;-63
2022/12/24 00:58:48;;;;;;;;;6.33;5.33;;;;;14.04;68.54;100731.34;2105351;27;46752;-62
2022/12/24 00:59:49;;;;;;;;;8.00;5.33;;;;;14.05;68.73;100727.75;2105108;27;46431;-63
2022/12/24 01:00:49;;;;;;;;;8.67;6.00;;;;;14.05;68.75;100741.06;2106111;27;46584;-62
2022/12/24 01:01:50;;;;;;;;;7.33;5.67;;;;;14.06;68.48;100750.81;2106170;27;46788;-62
2022/12/24 01:02:50;;;;;;;;;4.33;3.00;;;;;14.07;68.62;100763.25;2094629;28;46564;-62
2022/12/24 01:03:51;;;;;;;;;4.00;4.00;;;;;14.08;68.59;100772.13;2102103;28;45423;-62
2022/12/24 01:05:10;;;;;;;;;8.00;7.00;;;;;14.09;68.59;100771.19;2113789;27;46623;-62
2022/12/24 01:06:16;;;;;;;;;9.00;6.25;;;;;14.08;68.42;100769.44;2107315;27;46873;-63
2022/12/24 01:07:16;;;;;;;;;8.00;6.75;;;;;14.08;68.62;100769.44;2113428;27;46280;-63
2022/12/24 01:08:17;;;;;;;;;5.67;5.00;;;;;14.09;68.77;100764.06;2110925;27;47245;-63
2022/12/24 01:09:17;;;;;;;;;9.00;8.00;;;;;14.07;68.39;100760.56;2104612;28;46517;-61
2022/12/24 01:10:19;;;;;;;;;7.33;5.33;;;;;14.07;68.36;100765.03;2105184;27;46372;-61
2022/12/24 01:11:19;;;;;;;;;11.00;6.00;;;;;14.07;68.66;100765.03;2105224;28;45690;-63
2022/12/24 01:12:20;;;;;;;;;7.00;5.67;;;;;14.07;68.77;100773.91;2113365;27;47086;-61
2022/12/24 01:13:20;;;;;;;;;9.33;7.00;;;;;14.07;68.45;100759.69;2109555;27;46570;-61
2022/12/24 01:14:20;;;;;;;;;6.33;6.00;;;;;14.06;68.33;100752.63;2098514;28;46272;-61
2022/12/24 01:15:21;;;;;;;;;6.67;5.33;;;;;14.05;68.49;100745.53;2099407;28;46159;-63
2022/12/24 01:16:21;;;;;;;;;5.33;5.00;;;;;14.04;68.72;100747.34;2096187;28;46669;-62
2022/12/24 01:17:21;;;;;;;;;7.67;4.67;;;;;14.02;68.96;100741.19;2104364;28;46207;-62
2022/12/24 01:18:22;;;;;;;;;8.00;5.67;;;;;14.03;68.70;100747.41;2104404;27;46918;-61
2022/12/24 01:19:23;;;;;;;;;8.67;6.67;;;;;14.03;68.90;100752.75;2107726;27;45782;-63
2022/12/24 01:20:25;;;;;;;;;7.67;7.67;;;;;14.03;68.93;100755.41;2105661;27;46480;-62
2022/12/24 01:21:26;;;;;;;;;6.00;5.00;;;;;14.03;68.92;100756.28;2104719;28;46873;-62
2022/12/24 01:22:26;;;;;;;;;7.33;6.00;;;;;14.04;68.81;100751.81;2104329;28;46555;-62
2022/12/24 01:23:28;;;;;;;;;6.33;5.00;;;;;14.02;68.82;100741.19;2104553;27;46447;-62
2022/12/24 01:24:29;;;;;;;;;9.00;6.25;;;;;14.03;68.90;100742.06;2102611;28;46659;-61
2022/12/24 01:25:29;;;;;;;;;7.00;7.00;;;;;14.03;69.12;100734.06;2099061;28;45891;-62
2022/12/24 01:26:29;;;;;;;;;7.00;7.00;;;;;14.02;68.83;100727.84;2104271;27;46626;-63
2022/12/24 01:27:31;;;;;;;;;5.67;5.67;;;;;14.02;69.15;100724.31;2102318;27;47214;-62
2022/12/24 01:28:32;;;;;;;;;7.00;5.75;;;;;14.02;69.11;100738.53;2096138;28;46467;-62
2022/12/24 01:29:32;;;;;;;;;6.00;5.33;;;;;14.02;68.91;100738.53;2104270;28;46179;-62
2022/12/24 01:30:33;;;;;;;;;7.67;7.00;;;;;14.03;69.04;100745.59;2095970;28;46606;-63
2022/12/24 01:31:33;;;;;;;;;6.33;5.33;;;;;14.04;68.89;100744.69;2096262;28;46611;-63
2022/12/24 01:32:34;;;;;;;;;5.67;5.67;;;;;14.03;69.43;100752.75;2102030;28;46046;-62
2022/12/24 01:33:34;;;;;;;;;10.00;5.33;;;;;14.02;68.95;100757.19;2094807;28;45485;-63
2022/12/24 01:34:35;;;;;;;;;8.67;7.00;;;;;14.03;68.79;100760.75;2087567;28;46104;-63
2022/12/24 01:35:40;;;;;;;;;7.33;7.00;;;;;14.03;69.09;100761.63;2091053;28;45665;-63
2022/12/24 01:36:40;;;;;;;;;9.50;6.75;;;;;14.03;69.39;100769.63;2104666;28;46613;-63
2022/12/24 01:37:41;;;;;;;;;8.33;7.00;;;;;14.03;69.26;100758.06;2090382;28;46763;-62
2022/12/24 01:38:42;;;;;;;;;5.75;4.75;;;;;14.05;69.01;100764.22;2087663;28;46273;-62
2022/12/24 01:39:42;;;;;;;;;10.33;6.33;;;;;14.05;69.19;100764.22;2095870;28;46348;-63
2022/12/24 01:43:22;;;;;;;;;7.00;5.00;;;;;14.06;69.22;100761.50;2103990;28;46360;-62
2022/12/24 01:44:27;;;;;;;;;8.25;6.00;;;;;14.07;69.38;100762.38;2112906;27;45732;-63
2022/12/24 01:45:45;;;;;;;;;11.00;8.00;;;;;14.07;69.09;100751.69;2110775;27;46562;-63
2022/12/24 01:46:47;;;;;;;;;6.25;6.00;;;;;14.08;69.15;100761.44;2113196;27;46425;-62
2022/12/24 01:47:47;;;;;;;;;7.75;5.25;;;;;14.08;69.04;100756.97;2105513;27;45866;-62
2022/12/24 01:48:53;;;;;;;;;9.00;7.33;;;;;14.08;69.16;100756.97;2109676;27;46724;-62
2022/12/24 01:49:58;;;;;;;;;7.75;7.75;;;;;14.08;69.10;100759.63;2110688;27;46391;-62
2022/12/24 01:51:22;;;;;;;;;7.50;6.25;;;;;14.08;69.39;100767.66;2104942;28;45712;-62
2022/12/24 01:52:27;;;;;;;;;7.75;7.75;;;;;14.08;69.40;100772.97;2104463;28;46698;-63
2022/12/24 01:53:30;;;;;;;;;6.75;6.50;;;;;14.09;69.29;100774.72;2105329;27;46605;-62
2022/12/24 01:54:44;;;;;;;;;8.50;7.00;;;;;14.08;69.17;100772.13;2105032;27;46568;-63
2022/12/24 01:55:46;;;;;;;;;5.75;5.50;;;;;14.08;69.46;100770.31;2106030;27;46768;-63
2022/12/24 01:57:10;;;;;;;;;14.75;8.25;;;;;14.08;69.38;100770.31;2109940;27;46896;-63
2022/12/24 01:58:13;;;;;;;;;7.50;6.00;;;;;14.08;69.12;100777.44;2110618;27;46576;-63
2022/12/24 01:59:17;;;;;;;;;9.25;6.00;;;;;14.07;69.50;100781.91;2104871;28;46855;-63
2022/12/24 02:00:18;;;;;;;;;9.00;7.00;;;;;14.07;69.38;100781.03;2111401;27;46915;-63
2022/12/24 02:01:18;;;;;;;;;6.00;6.00;;;;;14.06;69.43;100782.84;2119620;27;45797;-62
2022/12/24 02:02:20;;;;;;;;;5.00;5.00;;;;;14.05;69.41;100789.09;2121319;27;46225;-62
2022/12/24 02:03:20;;;;;;;;;11.25;6.25;;;;;14.06;69.44;100785.50;2110678;27;45844;-61
2022/12/24 02:04:38;;;;;;;;;8.33;6.33;;;;;14.06;69.25;100785.50;2113151;27;46508;-62
2022/12/24 02:05:57;;;;;;;;;8.00;6.25;;;;;14.07;69.20;100776.56;2096378;28;46334;-63
2022/12/24 02:06:57;;;;;;;;;5.75;4.75;;;;;14.06;69.45;100784.66;2104931;28;46663;-62
2022/12/24 02:07:59;;;;;;;;;6.33;5.00;;;;;14.05;69.54;100780.22;2095658;28;46306;-61
2022/12/24 02:09:00;;;;;;;;;7.50;7.25;;;;;14.03;69.45;100788.28;2096008;28;46891;-62
2022/12/24 02:10:01;;;;;;;;;7.33;7.33;;;;;14.03;69.60;100796.31;2106437;27;46471;-63
2022/12/24 02:11:01;;;;;;;;;9.75;9.75;;;;;14.03;69.47;100792.75;2104773;28;46748;-63
2022/12/24 02:12:03;;;;;;;;;9.00;6.33;;;;;14.02;69.46;100799.03;2104932;28;45739;-62
2022/12/24 02:13:05;;;;;;;;;5.75;4.25;;;;;14.01;69.74;100811.50;2106107;27;46295;-61
2022/12/24 02:14:05;;;;;;;;;7.25;4.75;;;;;14.01;69.45;100808.84;2105317;27;46622;-62
2022/12/24 02:15:08;;;;;;;;;6.00;2.67;;;;;14.00;69.30;100804.41;2096918;28;46673;-62
2022/12/24 02:16:27;;;;;;;;;5.25;5.25;;;;;14.00;69.50;100798.22;2104893;27;45678;-62
2022/12/24 02:17:50;;;;;;;;;6.75;5.00;;;;;13.99;69.79;100796.47;2112098;27;46322;-63
2022/12/24 02:19:08;;;;;;;;;9.50;6.50;;;;;13.97;69.60;100787.63;2104529;28;46658;-62
2022/12/24 02:20:51;;;;;;;;;5.25;5.00;;;;;13.97;70.00;100788.50;2096341;28;46561;-62
2022/12/24 02:22:15;;;;;;;;;10.50;6.75;;;;;13.97;69.63;100793.81;2105624;28;45701;-62
2022/12/24 02:23:41;;;;;;;;;7.50;7.25;;;;;13.98;69.97;100784.94;2104905;27;46746;-62
2022/12/24 02:24:57;;;;;;;;;7.00;4.75;;;;;13.99;69.95;100785.81;2105228;27;46863;-62
2022/12/24 02:26:26;;;;;;;;;10.50;8.50;;;;;14.00;69.85;100790.22;2104795;27;46504;-61
2022/12/24 02:27:53;;;;;;;;;9.50;7.50;;;;;13.99;69.75;100797.34;2105115;27;46499;-62
2022/12/24 02:29:21;;;;;;;;;8.00;5.25;;;;;13.99;69.84;100794.69;2104627;27;46748;-62
2022/12/24 02:30:33;;;;;;;;;9.50;6.50;;;;;13.99;69.96;100788.47;2106101;27;45702;-61
2022/12/24 02:31:42;;;;;;;;;10.75;7.25;;;;;13.99;69.62;100783.13;2105021;27;46204;-61
2022/12/24 02:32:55;;;;;;;;;13.25;8.00;;;;;13.99;70.04;100797.34;2101013;28;46365;-62
2022/12/24 02:34:08;;;;;;;;;8.25;7.00;;;;;13.99;69.75;100800.00;2104924;27;47224;-62
2022/12/24 02:35:18;;;;;;;;;8.50;7.75;;;;;13.99;69.77;100804.47;2104961;27;46417;-64
2022/12/24 02:36:22;;;;;;;;;9.50;9.50;;;;;13.99;70.01;100799.13;2104773;27;46380;-62
2022/12/24 02:37:26;;;;;;;;;7.25;7.00;;;;;13.98;69.83;100800.94;2104693;27;46853;-63
2022/12/24 02:38:27;;;;;;;;;6.25;6.25;;;;;13.97;69.67;100799.16;2105433;27;46420;-63
2022/12/24 02:39:39;;;;;;;;;8.33;7.00;;;;;13.97;69.93;100791.16;2104603;27;46733;-62
2022/12/24 02:40:51;;;;;;;;;9.00;7.00;;;;;13.98;70.00;100787.59;2106135;27;46894;-62
2022/12/24 02:42:06;;;;;;;;;5.75;4.25;;;;;13.96;69.81;100794.75;2107719;27;46686;-63
2022/12/24 02:43:15;;;;;;;;;7.00;6.33;;;;;13.96;69.79;100789.41;2104748;27;46384;-63
2022/12/24 02:44:18;;;;;;;;;7.75;7.75;;;;;13.97;69.85;100790.28;2106756;27;46604;-63
2022/12/24 02:45:24;;;;;;;;;13.25;8.25;;;;;13.97;69.60;100775.16;2106531;27;47832;-62
2022/12/24 02:46:31;;;;;;;;;8.50;7.00;;;;;13.98;70.01;100778.72;2113072;27;46795;-63
2022/12/24 02:47:33;;;;;;;;;7.00;6.00;;;;;13.99;69.75;100783.13;2113644;27;46729;-62
2022/12/24 02:48:36;;;;;;;;;7.75;7.00;;;;;13.98;70.10;100786.72;2107850;27;46780;-62
2022/12/24 02:49:37;;;;;;;;;8.50;7.00;;;;;13.98;69.96;100792.94;2112823;27;46618;-64
2022/12/24 02:50:37;;;;;;;;;6.00;5.00;;;;;13.99;69.85;100796.47;2112421;27;46199;-63
2022/12/24 02:51:38;;;;;;;;;6.00;4.67;;;;;13.99;69.82;100796.47;2100268;28;46303;-62
2022/12/24 02:52:43;;;;;;;;;7.33;6.00;;;;;13.99;69.84;100799.13;2105325;27;46375;-61
2022/12/24 02:53:44;;;;;;;;;8.50;7.00;;;;;14.01;70.05;100805.28;2104674;27;46542;-62
2022/12/24 02:54:44;;;;;;;;;6.00;4.33;;;;;14.01;69.89;100810.63;2105116;27;46261;-63
2022/12/24 02:56:18;;;;;;;;;8.67;6.33;;;;;14.03;70.17;100808.78;2106147;27;46463;-63
2022/12/24 02:57:37;;;;;;;;;7.50;6.75;;;;;14.00;70.11;100804.41;2105422;27;46781;-63
2022/12/24 02:59:02;;;;;;;;;6.50;6.50;;;;;13.99;69.96;100802.69;2105034;27;46604;-62
2022/12/24 03:00:16;;;;;;;;;5.00;5.00;;;;;13.99;70.22;100799.13;2104574;27;46341;-62
2022/12/24 03:01:32;;;;;;;;;7.75;7.25;;;;;13.98;70.14;100784.94;2106002;27;45585;-63
2022/12/24 03:02:44;;;;;;;;;7.75;6.50;;;;;13.99;70.12;100791.13;2097593;27;46321;-62
2022/12/24 03:04:14;;;;;;;;;12.00;9.00;;;;;13.99;70.02;100784.00;2104185;28;47109;-61
2022/12/24 03:05:26;;;;;;;;;3.50;3.00;;;;;14.01;70.09;100781.28;2112234;27;45839;-61
2022/12/24 03:06:39;;;;;;;;;6.00;5.00;;;;;14.02;69.83;100775.88;2109637;27;45890;-63
2022/12/24 03:07:50;;;;;;;;;8.00;6.00;;;;;14.03;69.95;100780.28;2105339;27;46686;-62
2022/12/24 03:09:11;;;;;;;;;6.50;5.75;;;;;14.05;69.84;100780.22;2114028;27;47399;-61
2022/12/24 03:10:30;;;;;;;;;10.50;6.00;;;;;14.05;69.92;100777.56;2104024;28;46430;-62
2022/12/24 03:11:30;;;;;;;;;8.00;6.25;;;;;14.06;69.83;100779.31;2105124;27;46298;-62
2022/12/24 03:12:37;;;;;;;;;10.67;6.67;;;;;14.07;69.61;100786.38;2104728;27;46858;-62
2022/12/24 03:13:38;;;;;;;;;5.50;5.50;;;;;14.08;70.04;100781.00;2104887;27;46483;-62
2022/12/24 03:14:40;;;;;;;;;9.00;6.00;;;;;14.08;70.14;100778.31;2104650;27;46460;-62
2022/12/24 03:15:42;;;;;;;;;8.75;6.50;;;;;14.09;69.63;100776.53;2112913;27;46627;-60
2022/12/24 03:16:44;;;;;;;;;5.75;5.00;;;;;14.09;70.04;100784.53;2112618;27;46830;-62
2022/12/24 03:17:47;;;;;;;;;8.25;6.25;;;;;14.09;69.89;100787.19;2105151;27;46229;-62
2022/12/24 03:18:49;;;;;;;;;6.00;6.00;;;;;14.11;69.78;100788.03;2104732;27;46727;-62
2022/12/24 03:19:52;;;;;;;;;4.75;4.75;;;;;14.11;69.56;100774.69;2112019;27;46497;-61
2022/12/24 03:21:09;;;;;;;;;13.75;8.75;;;;;14.11;69.95;100775.56;2108411;27;46489;-63
2022/12/24 03:22:11;;;;;;;;;9.00;8.75;;;;;14.13;69.69;100776.38;2106901;27;46330;-62
2022/12/24 03:23:12;;;;;;;;;7.50;7.50;;;;;14.13;69.66;100780.84;2096855;28;46383;-62
2022/12/24 03:24:13;;;;;;;;;8.00;5.75;;;;;14.13;69.76;100780.84;2108177;27;46379;-62
2022/12/24 03:25:13;;;;;;;;;8.00;6.00;;;;;14.14;69.74;100782.59;2112920;27;46023;-62
2022/12/24 03:26:16;;;;;;;;;4.67;4.67;;;;;14.12;69.88;100782.66;2104653;27;47141;-62
2022/12/24 03:27:20;;;;;;;;;6.25;6.25;;;;;14.14;69.86;100785.25;2104817;27;46302;-61
2022/12/24 03:28:25;;;;;;;;;10.00;7.00;;;;;14.11;69.84;100780.91;2095648;28;46316;-63
2022/12/24 03:29:26;;;;;;;;;10.75;6.50;;;;;14.10;69.78;100773.81;2099857;28;46345;-62
2022/12/24 03:30:27;;;;;;;;;8.67;8.00;;;;;14.11;69.91;100775.56;2104762;27;47582;-61
2022/12/24 03:31:48;;;;;;;;;6.67;6.33;;;;;14.10;69.66;100770.25;2104522;27;46555;-62
2022/12/24 03:32:48;;;;;;;;;8.00;5.75;;;;;14.11;70.01;100772.91;2101719;28;46833;-62
2022/12/24 03:33:49;;;;;;;;;7.67;6.00;;;;;14.11;69.92;100772.91;2104437;27;46664;-62
2022/12/24 03:34:49;;;;;;;;;8.33;7.00;;;;;14.11;69.96;100777.38;2105204;27;46362;-62
2022/12/24 03:35:50;;;;;;;;;7.33;6.00;;;;;14.12;69.91;100773.78;2109884;27;46855;-62
2022/12/24 03:36:50;;;;;;;;;3.00;3.00;;;;;14.12;69.91;100779.09;2104410;27;47006;-62
2022/12/24 03:37:51;;;;;;;;;7.67;5.67;;;;;14.12;70.01;100774.63;2104792;27;45465;-62
2022/12/24 03:38:51;;;;;;;;;7.33;6.00;;;;;14.11;69.86;100774.69;2109825;27;46319;-62
2022/12/24 03:39:52;;;;;;;;;7.00;5.00;;;;;14.11;69.83;100775.56;2104363;28;46307;-63
2022/12/24 03:40:52;;;;;;;;;8.00;7.33;;;;;14.11;70.09;100783.56;2104209;27;46869;-63
2022/12/24 03:41:52;;;;;;;;;6.00;5.67;;;;;14.11;69.76;100780.03;2105385;27;47318;-63
2022/12/24 03:42:53;;;;;;;;;8.33;7.00;;;;;14.11;70.02;100783.56;2095740;28;46184;-63
2022/12/24 03:43:53;;;;;;;;;11.00;8.67;;;;;14.10;69.56;100786.28;2108295;27;46681;-62
2022/12/24 03:44:53;;;;;;;;;7.33;6.67;;;;;14.10;69.87;100787.19;2104616;28;46603;-63
2022/12/24 03:45:54;;;;;;;;;13.00;10.00;;;;;14.11;70.08;100790.72;2104751;27;46793;-61
2022/12/24 03:46:54;;;;;;;;;7.33;6.67;;;;;14.11;70.00;100793.38;2109735;27;46412;-63
2022/12/24 03:47:54;;;;;;;;;7.33;6.33;;;;;14.11;69.72;100791.59;2104377;27;47128;-62
2022/12/24 03:48:55;;;;;;;;;6.33;5.00;;;;;14.11;70.08;100793.38;2104574;27;46096;-62
2022/12/24 03:49:55;;;;;;;;;7.67;6.00;;;;;14.12;70.14;100796.00;2104745;27;46678;-62
2022/12/24 03:50:55;;;;;;;;;9.67;9.00;;;;;14.11;70.05;100796.91;2105080;27;46539;-61
2022/12/24 03:51:56;;;;;;;;;6.67;6.67;;;;;14.11;70.26;100794.25;2113777;27;46665;-62
2022/12/24 03:52:56;;;;;;;;;5.00;5.00;;;;;14.11;69.88;100793.38;2115955;27;46680;-62
2022/12/24 03:53:57;;;;;;;;;9.33;4.67;;;;;14.11;69.99;100790.72;2107965;27;46549;-61
2022/12/24 03:54:57;;;;;;;;;11.00;7.33;;;;;14.11;69.79;100790.72;2106101;27;45807;-64
2022/12/24 03:55:57;;;;;;;;;6.00;3.33;;;;;14.09;70.01;100787.19;2106763;27;46338;-61
2022/12/24 03:56:58;;;;;;;;;6.00;6.00;;;;;14.09;70.12;100789.88;2106019;27;46253;-62
2022/12/24 03:57:58;;;;;;;;;11.33;9.00;;;;;14.08;70.19;100793.47;2106011;27;46290;-62
2022/12/24 03:58:58;;;;;;;;;11.00;8.33;;;;;14.07;70.00;100787.25;2106057;27;46272;-61
2022/12/24 03:59:59;;;;;;;;;9.00;7.33;;;;;14.06;70.27;100793.53;2106806;27;46454;-62
2022/12/24 04:00:59;;;;;;;;;7.67;6.67;;;;;14.05;70.02;100791.78;2106095;27;46589;-62
2022/12/24 04:01:59;;;;;;;;;6.67;6.67;;;;;14.05;70.23;100796.25;2111197;27;46358;-63
2022/12/24 04:03:00;;;;;;;;;7.33;5.00;;;;;14.05;70.29;100794.44;2108167;27;46811;-63
2022/12/24 04:04:00;;;;;;;;;10.33;6.33;;;;;14.05;70.19;100794.44;2106388;27;46689;-63
2022/12/24 04:05:00;;;;;;;;;9.00;7.00;;;;;14.06;70.02;100796.19;2110665;27;46709;-62
2022/12/24 04:06:09;;;;;;;;;7.33;7.00;;;;;14.06;70.34;100798.00;2112396;27;46687;-61
2022/12/24 04:07:10;;;;;;;;;9.75;8.00;;;;;14.06;70.09;100793.53;2097284;28;46785;-63
2022/12/24 04:08:10;;;;;;;;;7.33;5.00;;;;;14.06;70.40;100798.00;2106063;27;46269;-62
2022/12/24 04:09:10;;;;;;;;;8.67;7.33;;;;;14.06;70.04;100808.66;2106440;27;46263;-62
2022/12/24 04:10:12;;;;;;;;;6.33;6.00;;;;;14.04;70.14;100808.72;2114588;27;46545;-62
2022/12/24 04:11:16;;;;;;;;;11.00;8.25;;;;;14.05;70.41;100807.78;2110128;27;47324;-62
2022/12/24 04:12:16;;;;;;;;;8.00;6.75;;;;;14.04;70.14;100807.84;2113832;27;46597;-62
2022/12/24 04:13:16;;;;;;;;;9.00;9.00;;;;;14.04;69.94;100813.19;2105135;27;46850;-62
2022/12/24 04:14:17;;;;;;;;;6.33;6.00;;;;;14.03;70.00;100808.78;2107192;27;46162;-61
2022/12/24 04:15:17;;;;;;;;;9.00;7.00;;;;;14.03;70.51;100812.31;2106030;28;46362;-62
2022/12/24 04:16:18;;;;;;;;;7.67;7.67;;;;;14.03;70.39;100812.31;2107800;27;46383;-62
2022/12/24 04:17:18;;;;;;;;;9.00;7.33;;;;;14.03;70.14;100814.13;2106026;27;46782;-62
2022/12/24 04:18:18;;;;;;;;;10.33;7.33;;;;;14.02;70.26;100810.56;2106163;27;45974;-62
2022/12/24 04:19:18;;;;;;;;;6.33;5.00;;;;;14.02;70.21;100813.25;2105816;27;46476;-62
2022/12/24 04:20:19;;;;;;;;;9.33;6.67;;;;;14.01;70.23;100808.84;2105946;27;47026;-61
2022/12/24 04:21:19;;;;;;;;;5.00;4.67;;;;;14.01;70.36;100822.16;2106146;27;46918;-61
2022/12/24 04:22:20;;;;;;;;;4.33;4.33;;;;;14.01;70.53;100829.31;2105675;27;46845;-62
2022/12/24 04:23:20;;;;;;;;;5.33;4.67;;;;;14.01;70.29;100830.19;2104564;28;46369;-62
2022/12/24 04:24:21;;;;;;;;;6.33;4.33;;;;;14.00;70.33;100819.56;2104796;27;46797;-62
2022/12/24 04:25:21;;;;;;;;;6.67;6.67;;;;;14.02;70.40;100826.59;2096748;28;46487;-62
2022/12/24 04:26:22;;;;;;;;;6.67;6.67;;;;;14.02;70.25;100821.25;2113940;27;46209;-61
2022/12/24 04:27:22;;;;;;;;;7.33;4.00;;;;;14.04;70.47;100823.84;2113564;27;46499;-62
2022/12/24 04:28:22;;;;;;;;;10.00;7.33;;;;;14.05;70.57;100822.94;2105560;27;46546;-62
2022/12/24 04:29:23;;;;;;;;;8.00;7.00;;;;;14.04;70.50;100830.06;2109299;27;45980;-62
2022/12/24 04:30:23;;;;;;;;;5.00;5.00;;;;;14.05;70.58;100828.25;2105875;27;46871;-62
2022/12/24 04:31:23;;;;;;;;;5.67;5.67;;;;;14.04;70.36;100830.06;2105760;27;46225;-62
2022/12/24 04:32:25;;;;;;;;;7.67;7.33;;;;;14.05;70.30;100833.59;2105602;27;46402;-62
2022/12/24 04:33:26;;;;;;;;;10.00;8.00;;;;;14.05;70.53;100833.59;2105835;27;46831;-61
2022/12/24 04:34:27;;;;;;;;;8.67;7.33;;;;;14.05;70.47;100839.81;2108288;27;46498;-62
2022/12/24 04:35:27;;;;;;;;;8.67;8.67;;;;;14.06;70.66;100840.69;2107010;27;46453;-62
2022/12/24 04:36:27;;;;;;;;;8.00;6.67;;;;;14.05;70.30;100831.81;2105731;27;46384;-61
2022/12/24 04:37:27;;;;;;;;;13.00;8.67;;;;;14.05;70.24;100830.94;2105499;27;46776;-63
2022/12/24 04:38:29;;;;;;;;;6.67;5.00;;;;;14.03;70.25;100841.66;2106064;27;46417;-62
2022/12/24 04:39:29;;;;;;;;;7.75;6.75;;;;;14.05;70.58;100845.16;2107351;27;46798;-62
2022/12/24 04:40:29;;;;;;;;;6.67;6.67;;;;;14.04;70.51;100846.06;2107896;27;45820;-61
2022/12/24 04:41:30;;;;;;;;;11.00;9.00;;;;;14.05;70.56;100838.94;2114491;27;46900;-61
2022/12/24 04:42:31;;;;;;;;;12.00;7.25;;;;;14.04;70.31;100845.19;2106670;27;46275;-63
2022/12/24 04:43:31;;;;;;;;;7.33;6.33;;;;;14.03;70.28;100840.78;2105613;27;46476;-62
2022/12/24 04:44:32;;;;;;;;;9.00;8.00;;;;;14.03;70.28;100844.34;2105281;28;46780;-61
2022/12/24 04:45:32;;;;;;;;;7.67;6.67;;;;;14.03;70.48;100838.13;2105142;27;46347;-62
2022/12/24 04:46:34;;;;;;;;;7.33;5.00;;;;;14.03;70.30;100852.34;2096032;28;46882;-62
2022/12/24 04:47:34;;;;;;;;;7.75;5.00;;;;;14.02;70.75;100849.72;2103223;28;46917;-61
2022/12/24 04:48:35;;;;;;;;;8.00;6.00;;;;;14.02;70.51;100853.25;2105530;27;47293;-61
2022/12/24 04:49:35;;;;;;;;;8.25;7.25;;;;;14.02;70.49;100855.94;2105901;27;46472;-63
2022/12/24 04:50:36;;;;;;;;;11.67;7.67;;;;;14.03;70.47;100852.34;2105385;27;46218;-63
2022/12/24 04:51:36;;;;;;;;;4.67;4.33;;;;;14.04;70.39;100847.88;2105814;27;45575;-61
2022/12/24 04:52:36;;;;;;;;;14.00;10.00;;;;;14.04;70.51;100842.53;2105895;27;46879;-61
2022/12/24 04:53:38;;;;;;;;;8.67;7.67;;;;;14.05;70.49;100849.63;2105572;27;45147;-61
2022/12/24 04:54:38;;;;;;;;;6.00;4.75;;;;;14.04;70.51;100851.41;2106034;27;46623;-62
2022/12/24 04:55:43;;;;;;;;;6.00;5.00;;;;;14.03;70.20;100840.78;2112232;27;46500;-62
2022/12/24 04:56:43;;;;;;;;;7.25;6.75;;;;;14.01;70.42;100847.97;2105792;27;46506;-61
2022/12/24 04:57:43;;;;;;;;;7.00;4.00;;;;;14.01;70.34;100842.66;2105671;27;46598;-62